Time;durP1;ratioP1;P1;durP2;ratioP2;P2;SDS_P1;SDS_P2;PMS_P1;PMS_P2;Temp;Humidity;BMP_temperature;BMP_pressure;BME280_temperature;BME280_humidity;BME280_pressure;Samples;Min_cycle;Max_cycle;Signal;HPM_P1;HPM_P2
2021/09/15 00:01:39;;;;;;;6.28;3.75;;;;;;;;;;21084613;28;20062;-54
2021/09/15 00:11:41;;;;;;;6.95;4.20;;;;;;;;;;21084613;28;20504;-55
2021/09/15 00:21:42;;;;;;;6.43;4.30;;;;;;;;;;21084777;28;20054;-54
2021/09/15 00:31:44;;;;;;;6.32;4.50;;;;;;;;;;21091026;28;20479;-60
2021/09/15 00:41:46;;;;;;;5.18;3.17;;;;;;;;;;21081069;28;20047;-57
2021/09/15 00:51:48;;;;;;;5.18;2.90;;;;;;;;;;21081110;28;20502;-54
2021/09/15 01:01:51;;;;;;;5.47;3.50;;;;;;;;;;21079949;28;20066;-54
2021/09/15 01:11:53;;;;;;;3.55;2.28;;;;;;;;;;21078561;28;20464;-53
2021/09/15 01:21:57;;;;;;;5.90;3.60;;;;;;;;;;21079810;28;20058;-58
2021/09/15 01:32:01;;;;;;;8.27;4.20;;;;;;;;;;21077951;28;20123;-54
2021/09/15 01:42:09;;;;;;;7.10;4.00;;;;;;;;;;21077877;28;20546;-61
2021/09/15 01:52:21;;;;;;;;;;;;;;;;;;21078759;28;20048;-55
2021/09/15 02:02:29;;;;;;;6.63;3.50;;;;;;;;;;21077459;28;19942;-52
2021/09/15 02:12:39;;;;;;;6.38;3.35;;;;;;;;;;21076542;28;20040;-53
2021/09/15 02:22:43;;;;;;;5.40;3.28;;;;;;;;;;21086353;28;20098;-56
2021/09/15 02:32:45;;;;;;;8.88;4.22;;;;;;;;;;21092052;28;20525;-54
2021/09/15 02:42:49;;;;;;;15.07;4.20;;;;;;;;;;21092231;28;20044;-55
2021/09/15 02:53:09;;;;;;;6.55;3.45;;;;;;;;;;21090444;28;20044;-54
2021/09/15 03:03:20;;;;;;;9.70;3.70;;;;;;;;;;21089469;28;20396;-54
2021/09/15 03:13:37;;;;;;;9.07;5.35;;;;;;;;;;21088241;28;20135;-59
2021/09/15 03:23:44;;;;;;;8.32;3.92;;;;;;;;;;21088263;28;20106;-54
2021/09/15 03:33:52;;;;;;;6.97;3.60;;;;;;;;;;21086285;28;20131;-64
2021/09/15 03:44:05;;;;;;;9.10;3.80;;;;;;;;;;21086040;28;20048;-54
2021/09/15 03:54:10;;;;;;;6.07;3.63;;;;;;;;;;21085016;28;20113;-58
2021/09/15 04:04:16;;;;;;;7.07;4.43;;;;;;;;;;21084386;28;20534;-54
2021/09/15 04:14:25;;;;;;;7.55;3.88;;;;;;;;;;21084368;28;20048;-54
2021/09/15 04:34:52;;;;;;;6.03;3.75;;;;;;;;;;21082005;28;20048;-54
2021/09/15 04:44:54;;;;;;;13.67;3.83;;;;;;;;;;21063413;28;20109;-55
2021/09/15 04:54:59;;;;;;;8.07;3.88;;;;;;;;;;21081636;28;20075;-63
2021/09/15 05:05:02;;;;;;;6.55;2.95;;;;;;;;;;21079526;28;20087;-56
2021/09/15 05:15:06;;;;;;;3.97;2.25;;;;;;;;;;21062899;28;20056;-65
2021/09/15 05:25:08;;;;;;;10.48;2.70;;;;;;;;;;21079033;28;20044;-59
2021/09/15 05:35:14;;;;;;;8.25;2.75;;;;;;;;;;21078534;28;20097;-62
2021/09/15 05:45:16;;;;;;;6.37;3.03;;;;;;;;;;21078974;28;20055;-64
2021/09/15 05:55:18;;;;;;;5.80;3.33;;;;;;;;;;21084226;28;20415;-52
2021/09/15 06:05:20;;;;;;;9.63;3.75;;;;;;;;;;21093816;28;20048;-61
2021/09/15 06:15:22;;;;;;;6.93;2.70;;;;;;;;;;21093448;28;20123;-61
2021/09/15 06:25:24;;;;;;;8.32;3.47;;;;;;;;;;21091952;28;20158;-60
2021/09/15 06:35:30;;;;;;;6.90;3.83;;;;;;;;;;21092143;28;20079;-60
2021/09/15 06:45:34;;;;;;;9.77;3.90;;;;;;;;;;21091016;28;20048;-54
2021/09/15 06:55:36;;;;;;;5.87;3.70;;;;;;;;;;21090740;28;20048;-61
2021/09/15 07:05:39;;;;;;;5.47;2.77;;;;;;;;;;21095255;28;20112;-54
2021/09/15 07:15:41;;;;;;;8.02;3.78;;;;;;;;;;21088914;28;20626;-61
2021/09/15 07:25:44;;;;;;;8.00;4.53;;;;;;;;;;21088166;28;20059;-59
2021/09/15 07:35:46;;;;;;;7.85;4.53;;;;;;;;;;21088224;28;20056;-63
2021/09/15 07:45:48;;;;;;;7.95;4.90;;;;;;;;;;21085612;28;20396;-55
2021/09/15 07:55:51;;;;;;;9.70;5.27;;;;;;;;;;21085182;28;20464;-56
2021/09/15 08:05:57;;;;;;;8.48;5.25;;;;;;;;;;21084476;28;20048;-63
2021/09/15 08:16:01;;;;;;;8.57;5.07;;;;;;;;;;21084138;28;20044;-64
2021/09/15 08:26:03;;;;;;;6.57;4.45;;;;;;;;;;21083026;28;20052;-56
2021/09/15 08:36:06;;;;;;;8.48;5.47;;;;;;;;;;21064207;28;20400;-63
2021/09/15 08:46:11;;;;;;;6.50;3.58;;;;;;;;;;21081127;28;20051;-64
2021/09/15 08:56:13;;;;;;;9.05;4.20;;;;;;;;;;21062737;28;20101;-66
2021/09/15 09:06:21;;;;;;;8.33;3.80;;;;;;;;;;21080463;28;20548;-65
2021/09/15 09:16:37;;;;;;;9.25;4.70;;;;;;;;;;21079390;28;20043;-63
2021/09/15 09:26:51;;;;;;;8.05;4.70;;;;;;;;;;21078631;28;20048;-59
2021/09/15 09:37:09;;;;;;;10.38;4.75;;;;;;;;;;21078676;28;20401;-63
2021/09/15 09:47:19;;;;;;;6.70;3.33;;;;;;;;;;21077880;28;20060;-53
2021/09/15 09:57:21;;;;;;;5.90;3.67;;;;;;;;;;21077020;28;20521;-54
2021/09/15 10:07:24;;;;;;;7.78;2.53;;;;;;;;;;21076859;28;20088;-55
2021/09/15 10:17:28;;;;;;;6.80;3.10;;;;;;;;;;21058531;28;20075;-57
2021/09/15 10:27:32;;;;;;;5.38;2.70;;;;;;;;;;21058015;28;20139;-62
2021/09/15 10:37:34;;;;;;;4.47;2.40;;;;;;;;;;21076203;28;20048;-56
2021/09/15 10:47:37;;;;;;;5.17;2.43;;;;;;;;;;21090720;28;20076;-56
2021/09/15 10:57:43;;;;;;;4.55;2.13;;;;;;;;;;21089747;28;20131;-58
2021/09/15 11:07:48;;;;;;;3.22;1.70;;;;;;;;;;21087658;28;20055;-55
2021/09/15 11:17:50;;;;;;;3.33;2.00;;;;;;;;;;21087446;28;20044;-53
2021/09/15 11:28:13;;;;;;;5.55;2.05;;;;;;;;;;21085319;28;20059;-55
2021/09/15 11:38:16;;;;;;;5.38;1.60;;;;;;;;;;21084470;28;20055;-53
2021/09/15 11:48:28;;;;;;;3.13;1.27;;;;;;;;;;21083940;28;20423;-54
2021/09/15 11:58:30;;;;;;;4.70;1.50;;;;;;;;;;21081906;28;20100;-53
2021/09/15 12:08:34;;;;;;;2.90;1.63;;;;;;;;;;21081648;28;20070;-53
2021/09/15 12:18:39;;;;;;;3.88;1.60;;;;;;;;;;21080594;28;20051;-54
2021/09/15 12:28:42;;;;;;;3.92;1.45;;;;;;;;;;21080778;28;20200;-54
2021/09/15 12:38:44;;;;;;;;;;;;;;;;;;21081991;28;20508;-54
2021/09/15 12:48:47;;;;;;;2.88;1.40;;;;;;;;;;21080198;28;19919;-53
2021/09/15 12:58:51;;;;;;;2.70;1.30;;;;;;;;;;21082317;28;20051;-55
2021/09/15 13:08:55;;;;;;;4.65;1.33;;;;;;;;;;21090628;28;20060;-64
2021/09/15 13:18:58;;;;;;;3.33;1.63;;;;;;;;;;21080121;28;20083;-56
2021/09/15 13:29:00;;;;;;;;;;;;;;;;;;21078028;28;20052;-54
2021/09/15 13:39:03;;;;;;;3.45;1.42;;;;;;;;;;21079017;28;20027;-61
2021/09/15 13:49:06;;;;;;;3.75;1.60;;;;;;;;;;21076496;28;20058;-55
2021/09/15 13:59:09;;;;;;;4.10;2.95;;;;;;;;;;21076274;28;20048;-63
2021/09/15 14:09:11;;;;;;;3.75;1.60;;;;;;;;;;21077153;28;20044;-64
2021/09/15 14:19:13;;;;;;;4.50;1.70;;;;;;;;;;21069930;28;20487;-66
2021/09/15 14:29:15;;;;;;;;;;;;;;;;;;21091947;28;20051;-65
2021/09/15 14:39:18;;;;;;;4.03;1.27;;;;;;;;;;21090806;28;19970;-52
2021/09/15 14:49:20;;;;;;;;;;;;;;;;;;21090209;28;20056;-57
2021/09/15 14:59:22;;;;;;;3.83;1.50;;;;;;;;;;21089159;28;19920;-62
2021/09/15 15:09:24;;;;;;;1.85;1.25;;;;;;;;;;21088790;28;20058;-57
2021/09/15 15:19:27;;;;;;;;;;;;;;;;;;21088124;28;20048;-54
2021/09/15 15:29:28;;;;;;;2.95;0.90;;;;;;;;;;21085290;28;19927;-59
2021/09/15 15:39:31;;;;;;;2.97;1.60;;;;;;;;;;21087182;28;20071;-55
2021/09/15 15:49:33;;;;;;;;;;;;;;;;;;21085354;28;20142;-53
2021/09/15 15:59:35;;;;;;;2.40;1.48;;;;;;;;;;21083970;28;19970;-58
2021/09/15 16:09:37;;;;;;;;;;;;;;;;;;21085558;28;20074;-56
2021/09/15 16:19:39;;;;;;;2.92;1.10;;;;;;;;;;21082936;28;19924;-53
2021/09/15 16:29:44;;;;;;;;;;;;;;;;;;21082260;28;20056;-56
2021/09/15 16:39:47;;;;;;;3.40;1.38;;;;;;;;;;21081887;28;19927;-54
2021/09/15 16:49:52;;;;;;;3.83;1.80;;;;;;;;;;21157169;28;20127;-53
2021/09/15 16:59:54;;;;;;;2.63;1.50;;;;;;;;;;21164125;28;20051;-53
2021/09/15 17:09:56;;;;;;;4.00;1.15;;;;;;;;;;21165281;28;20503;-57
2021/09/15 17:19:58;;;;;;;3.03;0.95;;;;;;;;;;21163871;28;20092;-53
2021/09/15 17:30:00;;;;;;;4.67;2.53;;;;;;;;;;21162876;28;20047;-53
2021/09/15 17:40:03;;;;;;;2.25;1.40;;;;;;;;;;21161932;28;20108;-52
2021/09/15 17:50:06;;;;;;;3.17;1.05;;;;;;;;;;21166407;28;20047;-53
2021/09/15 18:00:08;;;;;;;4.95;1.20;;;;;;;;;;21179404;28;20495;-54
2021/09/15 18:10:11;;;;;;;6.00;2.00;;;;;;;;;;21179498;28;20380;-65
2021/09/15 18:20:12;;;;;;;;;;;;;;;;;;21146297;28;20296;-56
2021/09/15 18:30:15;;;;;;;5.25;2.30;;;;;;;;;;21091280;28;19976;-57
2021/09/15 18:40:17;;;;;;;2.47;1.25;;;;;;;;;;21091655;28;20048;-52
2021/09/15 18:50:20;;;;;;;3.77;2.40;;;;;;;;;;21090226;28;20488;-54
2021/09/15 19:00:22;;;;;;;6.33;2.10;;;;;;;;;;21087079;28;20048;-56
2021/09/15 19:10:24;;;;;;;2.10;1.40;;;;;;;;;;21087751;28;20143;-61
2021/09/15 19:20:26;;;;;;;4.50;1.40;;;;;;;;;;21087157;28;20412;-57
2021/09/15 19:30:28;;;;;;;2.23;1.50;;;;;;;;;;21086439;28;20483;-59
2021/09/15 19:40:31;;;;;;;4.10;2.30;;;;;;;;;;21085948;28;20043;-56
2021/09/15 19:50:33;;;;;;;4.43;2.80;;;;;;;;;;21085289;28;20055;-62
2021/09/15 20:00:36;;;;;;;3.07;2.43;;;;;;;;;;21084283;28;20052;-55
2021/09/15 20:10:38;;;;;;;4.70;2.50;;;;;;;;;;21083483;28;20123;-58
2021/09/15 20:20:40;;;;;;;3.67;2.10;;;;;;;;;;21083092;28;20280;-63
2021/09/15 20:30:43;;;;;;;4.37;3.50;;;;;;;;;;21083018;28;20051;-55
2021/09/15 20:40:45;;;;;;;5.03;2.67;;;;;;;;;;21081476;28;20394;-63
2021/09/15 20:50:47;;;;;;;6.28;2.65;;;;;;;;;;21080786;28;20060;-65
2021/09/15 21:00:49;;;;;;;3.93;1.83;;;;;;;;;;21080145;28;20407;-52
2021/09/15 21:10:51;;;;;;;4.10;2.33;;;;;;;;;;21079550;28;20117;-64
2021/09/15 21:20:54;;;;;;;3.50;2.17;;;;;;;;;;21079698;28;20330;-55
2021/09/15 21:30:56;;;;;;;5.33;2.87;;;;;;;;;;21077333;28;20047;-53
2021/09/15 21:40:58;;;;;;;13.63;2.53;;;;;;;;;;21078127;28;20047;-59
2021/09/15 21:51:00;;;;;;;6.18;2.10;;;;;;;;;;21078417;28;20142;-60
2021/09/15 22:01:07;;;;;;;5.43;2.28;;;;;;;;;;21077093;28;20472;-66
2021/09/15 22:11:10;;;;;;;3.40;1.73;;;;;;;;;;21076688;28;20142;-60
2021/09/15 22:21:14;;;;;;;3.08;1.80;;;;;;;;;;21075824;28;20146;-64
2021/09/15 22:31:16;;;;;;;4.47;2.78;;;;;;;;;;21075653;28;20415;-63
2021/09/15 22:41:19;;;;;;;6.67;2.20;;;;;;;;;;21134166;28;20044;-58
2021/09/15 22:51:21;;;;;;;3.50;1.87;;;;;;;;;;21174241;28;20768;-53
2021/09/15 23:01:23;;;;;;;5.50;2.08;;;;;;;;;;21173605;28;20575;-53
2021/09/15 23:11:25;;;;;;;3.30;1.88;;;;;;;;;;21173351;28;20051;-53
2021/09/15 23:21:29;;;;;;;21.05;7.15;;;;;;;;;;21172461;28;20050;-54
2021/09/15 23:31:33;;;;;;;4.43;1.60;;;;;;;;;;21153238;28;20240;-53
2021/09/15 23:41:36;;;;;;;6.40;2.00;;;;;;;;;;21170675;28;20048;-52
2021/09/15 23:51:39;;;;;;;2.95;1.75;;;;;;;;;;21169563;28;20104;-52
